Time;durP1;ratioP1;P1;durP2;ratioP2;P2;SDS_P1;SDS_P2;PMS_P1;PMS_P2;Temp;Humidity;BMP_temperature;BMP_pressure;BME280_temperature;BME280_humidity;BME280_pressure;Samples;Min_cycle;Max_cycle;Signal;HPM_P1;HPM_P2
2023/03/31 00:02:12;;;;;;;7.00;2.67;;;14.80;99.90;;;;;;4996613;28;20473;-76
2023/03/31 00:04:44;;;;;;;7.53;3.25;;;14.80;99.90;;;;;;4995375;28;20050;-76
2023/03/31 00:07:15;;;;;;;6.80;2.88;;;14.90;99.90;;;;;;5000081;28;20129;-76
2023/03/31 00:09:45;;;;;;;13.75;3.67;;;14.80;99.90;;;;;;4999131;28;20154;-76
2023/03/31 00:12:13;;;;;;;7.35;3.20;;;14.80;99.90;;;;;;4996687;28;20047;-76
2023/03/31 00:14:41;;;;;;;7.72;2.90;;;14.80;99.90;;;;;;5002921;28;20046;-76
2023/03/31 00:17:09;;;;;;;8.93;3.63;;;14.80;99.90;;;;;;4996662;28;20572;-76
2023/03/31 00:19:36;;;;;;;10.77;3.35;;;14.80;99.90;;;;;;5002796;28;20046;-76
2023/03/31 00:22:05;;;;;;;9.75;3.28;;;14.70;99.90;;;;;;5006008;28;20053;-76
2023/03/31 00:24:32;;;;;;;8.77;3.70;;;14.70;99.90;;;;;;5003107;28;20524;-74
2023/03/31 00:27:00;;;;;;;8.70;3.03;;;14.70;99.90;;;;;;4999998;28;20124;-76
2023/03/31 00:29:27;;;;;;;8.77;2.72;;;14.70;99.90;;;;;;5002513;28;20042;-75
2023/03/31 00:31:54;;;;;;;7.35;2.80;;;14.70;99.90;;;;;;5002523;28;20513;-75
2023/03/31 00:34:21;;;;;;;10.18;3.60;;;14.70;99.90;;;;;;4999758;28;20050;-74
2023/03/31 00:36:48;;;;;;;9.30;3.10;;;14.60;99.90;;;;;;5003385;28;20050;-74
2023/03/31 00:39:17;;;;;;;9.88;3.50;;;14.60;99.90;;;;;;5002993;28;20073;-74
2023/03/31 00:41:44;;;;;;;9.50;3.50;;;14.50;99.90;;;;;;5004381;28;20052;-75
2023/03/31 00:44:17;;;;;;;9.77;3.78;;;14.50;99.90;;;;;;5004290;28;20406;-76
2023/03/31 00:47:01;;;;;;;11.07;3.67;;;14.50;99.90;;;;;;4999082;28;20050;-75
2023/03/31 00:49:32;;;;;;;8.88;3.15;;;14.40;99.90;;;;;;5000873;28;20469;-75
2023/03/31 00:52:12;;;;;;;9.30;3.35;;;14.40;99.90;;;;;;5000347;28;20057;-76
2023/03/31 00:54:41;;;;;;;9.73;3.33;;;14.40;99.90;;;;;;5005034;28;20049;-75
2023/03/31 00:57:09;;;;;;;12.77;3.42;;;14.40;99.90;;;;;;5002926;28;20057;-75
2023/03/31 00:59:45;;;;;;;5.68;3.17;;;14.40;99.90;;;;;;5008803;28;20052;-75
2023/03/31 01:02:13;;;;;;;12.10;3.72;;;14.40;99.90;;;;;;5001640;28;20055;-75
2023/03/31 01:04:49;;;;;;;10.38;3.08;;;14.30;99.90;;;;;;5006705;28;20045;-76
2023/03/31 01:07:41;;;;;;;8.77;3.40;;;14.30;99.90;;;;;;5001168;28;20054;-75
2023/03/31 01:10:09;;;;;;;5.47;3.45;;;14.30;99.90;;;;;;5001662;28;20064;-75
2023/03/31 01:12:42;;;;;;;6.97;3.13;;;14.30;99.90;;;;;;5001063;28;20504;-75
2023/03/31 01:15:10;;;;;;;11.73;3.85;;;14.30;99.90;;;;;;5002644;28;20080;-75
2023/03/31 01:17:37;;;;;;;7.63;3.35;;;14.20;99.90;;;;;;5001976;28;20532;-75
2023/03/31 01:20:13;;;;;;;6.85;3.05;;;14.20;99.90;;;;;;5001094;28;20587;-75
2023/03/31 01:23:05;;;;;;;12.10;3.13;;;14.20;99.90;;;;;;4998126;28;20058;-74
2023/03/31 01:26:09;;;;;;;11.23;3.67;;;14.20;99.90;;;;;;5003501;28;20490;-75
2023/03/31 01:28:53;;;;;;;8.73;3.22;;;14.20;99.90;;;;;;4999626;28;20053;-74
2023/03/31 01:31:29;;;;;;;8.55;3.50;;;14.20;99.90;;;;;;4999142;28;20053;-75
2023/03/31 01:34:22;;;;;;;9.43;3.78;;;14.10;99.90;;;;;;5002472;28;20137;-74
2023/03/31 01:37:20;;;;;;;9.05;3.67;;;14.10;99.90;;;;;;4998719;28;20506;-74
2023/03/31 01:40:01;;;;;;;7.85;3.95;;;14.10;99.90;;;;;;5008620;28;20576;-75
2023/03/31 01:42:41;;;;;;;11.52;3.53;;;14.10;99.90;;;;;;5000457;28;20594;-74
2023/03/31 01:45:37;;;;;;;11.48;3.75;;;14.10;99.90;;;;;;5001866;28;20085;-75
2023/03/31 01:48:40;;;;;;;9.85;3.42;;;14.00;99.90;;;;;;5007758;28;20230;-75
2023/03/31 01:51:26;;;;;;;7.80;3.22;;;14.00;99.90;;;;;;4962863;28;20138;-75
2023/03/31 01:54:21;;;;;;;13.07;3.33;;;14.00;99.90;;;;;;5000006;28;20054;-75
2023/03/31 01:56:55;;;;;;;11.77;3.08;;;13.90;99.90;;;;;;5000398;28;20137;-75
2023/03/31 01:59:28;;;;;;;8.65;3.35;;;13.90;99.90;;;;;;4995979;28;20050;-75
2023/03/31 02:02:13;;;;;;;9.98;3.42;;;13.90;99.90;;;;;;4998265;28;20153;-75
2023/03/31 02:04:46;;;;;;;8.68;3.28;;;13.80;99.90;;;;;;4995058;28;20078;-75
2023/03/31 02:07:17;;;;;;;12.57;5.07;;;13.80;99.90;;;;;;5000372;28;20453;-75
2023/03/31 02:09:49;;;;;;;13.10;4.05;;;13.70;99.90;;;;;;4999606;28;20078;-75
2023/03/31 02:12:20;;;;;;;14.27;3.70;;;13.70;99.90;;;;;;5004405;28;20100;-75
2023/03/31 02:14:50;;;;;;;14.95;3.75;;;13.70;99.90;;;;;;5007705;28;20058;-75
2023/03/31 02:17:20;;;;;;;;;;;13.60;99.90;;;;;;5003171;28;20053;-75
2023/03/31 02:19:52;;;;;;;11.77;4.32;;;13.60;99.90;;;;;;4998551;28;20274;-75
2023/03/31 02:22:20;;;;;;;9.90;3.78;;;13.60;99.90;;;;;;5007459;28;20054;-75
2023/03/31 02:24:49;;;;;;;7.53;3.25;;;13.60;99.90;;;;;;4998139;28;20069;-75
2023/03/31 02:27:30;;;;;;;8.02;3.22;;;13.70;99.90;;;;;;5000920;28;20743;-76
2023/03/31 02:29:57;;;;;;;8.52;3.10;;;13.70;99.90;;;;;;5003130;28;20421;-76
2023/03/31 02:32:31;;;;;;;14.38;3.78;;;13.60;99.90;;;;;;4998867;28;20540;-76
2023/03/31 02:34:59;;;;;;;8.07;4.28;;;13.60;99.90;;;;;;4997337;28;20045;-75
2023/03/31 02:37:29;;;;;;;10.45;3.05;;;13.60;99.90;;;;;;4999423;28;20050;-76
2023/03/31 02:40:00;;;;;;;10.53;3.63;;;13.60;99.90;;;;;;5001395;28;20104;-75
2023/03/31 02:42:27;;;;;;;10.35;3.65;;;13.60;99.90;;;;;;5001182;28;20046;-76
2023/03/31 02:44:53;;;;;;;8.40;3.20;;;13.60;99.90;;;;;;4999583;28;20050;-76
2023/03/31 02:47:21;;;;;;;8.07;3.38;;;13.60;99.90;;;;;;4996666;28;20533;-76
2023/03/31 02:49:52;;;;;;;7.60;3.38;;;13.60;99.90;;;;;;4997642;28;20038;-75
2023/03/31 02:52:57;;;;;;;7.55;3.40;;;13.70;99.90;;;;;;5003929;28;20074;-76
2023/03/31 02:55:47;;;;;;;4.97;2.70;;;13.70;99.90;;;;;;5004947;28;20045;-76
2023/03/31 02:58:25;;;;;;;12.75;3.42;;;13.70;99.90;;;;;;4995759;28;20065;-75
2023/03/31 03:00:58;;;;;;;8.20;3.45;;;13.70;99.90;;;;;;5000319;28;20125;-76
2023/03/31 03:03:49;;;;;;;9.07;3.30;;;13.80;99.90;;;;;;5000334;28;20502;-76
2023/03/31 03:06:30;;;;;;;11.85;3.42;;;13.80;99.90;;;;;;5000365;28;20043;-76
2023/03/31 03:09:21;;;;;;;9.20;3.35;;;13.80;99.90;;;;;;4999261;28;20042;-76
2023/03/31 03:12:02;;;;;;;13.15;3.40;;;13.90;99.90;;;;;;4998672;28;20061;-76
2023/03/31 03:14:38;;;;;;;11.27;3.47;;;13.90;99.90;;;;;;5001866;28;20144;-75
2023/03/31 03:17:13;;;;;;;12.13;3.72;;;13.90;99.90;;;;;;5001714;28;20517;-76
2023/03/31 03:19:41;;;;;;;7.85;3.47;;;13.90;99.90;;;;;;4995512;28;20077;-75
2023/03/31 03:22:08;;;;;;;8.77;3.38;;;13.90;99.90;;;;;;5006924;28;20050;-75
2023/03/31 03:24:35;;;;;;;8.15;2.53;;;13.90;99.90;;;;;;5001082;28;20042;-75
2023/03/31 03:27:01;;;;;;;12.35;2.95;;;13.90;99.90;;;;;;5001983;28;20422;-76
2023/03/31 03:29:28;;;;;;;9.63;2.90;;;14.00;99.90;;;;;;4998124;28;20050;-75
2023/03/31 03:31:55;;;;;;;11.10;3.72;;;14.00;99.90;;;;;;5000043;28;20125;-75
2023/03/31 03:34:22;;;;;;;8.75;3.90;;;14.00;99.90;;;;;;4997348;28;20046;-75
2023/03/31 03:36:48;;;;;;;9.93;3.13;;;14.10;99.90;;;;;;4995694;28;20046;-76
2023/03/31 03:39:15;;;;;;;7.78;3.80;;;14.10;99.90;;;;;;5000102;28;20050;-76
2023/03/31 03:41:42;;;;;;;6.38;3.00;;;14.10;99.90;;;;;;5001207;28;20125;-75
2023/03/31 03:44:08;;;;;;;8.05;3.42;;;14.20;99.90;;;;;;5002266;28;20049;-76
2023/03/31 03:46:35;;;;;;;8.27;3.22;;;14.20;99.90;;;;;;4998373;28;20489;-76
2023/03/31 03:49:02;;;;;;;5.97;2.85;;;14.20;99.90;;;;;;5002116;28;20038;-75
2023/03/31 03:51:28;;;;;;;9.07;2.53;;;14.30;99.90;;;;;;4997956;28;20536;-75
2023/03/31 03:53:55;;;;;;;6.60;2.75;;;14.30;99.90;;;;;;4997589;28;20049;-76
2023/03/31 03:56:22;;;;;;;8.70;3.10;;;14.30;99.90;;;;;;4996480;28;20425;-76
2023/03/31 03:58:49;;;;;;;6.68;2.65;;;14.40;99.90;;;;;;5000657;28;20042;-76
2023/03/31 04:01:16;;;;;;;10.93;3.10;;;14.40;99.90;;;;;;5006550;28;20395;-76
2023/03/31 04:03:44;;;;;;;9.80;3.17;;;14.50;99.90;;;;;;5001550;28;20049;-76
2023/03/31 04:06:10;;;;;;;10.50;2.90;;;14.50;99.90;;;;;;4996655;28;20065;-75
2023/03/31 04:08:37;;;;;;;10.40;2.88;;;14.60;99.90;;;;;;4998058;28;20422;-75
2023/03/31 04:11:13;;;;;;;11.00;2.38;;;14.60;99.90;;;;;;5001041;28;20516;-75
2023/03/31 04:13:43;;;;;;;6.68;2.67;;;14.60;99.90;;;;;;5001673;28;20077;-76
2023/03/31 04:16:10;;;;;;;10.98;3.53;;;14.70;99.90;;;;;;4999302;28;20412;-76
2023/03/31 04:18:41;;;;;;;6.88;2.58;;;14.70;99.90;;;;;;4992320;28;20050;-74
2023/03/31 04:21:11;;;;;;;11.20;3.47;;;14.80;99.90;;;;;;5002610;28;20186;-76
2023/03/31 04:23:45;;;;;;;5.32;2.97;;;14.80;99.90;;;;;;5001528;28;20073;-76
2023/03/31 04:26:13;;;;;;;7.00;3.17;;;14.80;99.90;;;;;;5006043;28;20041;-76
2023/03/31 04:28:45;;;;;;;8.50;3.15;;;14.70;99.90;;;;;;5004216;28;20124;-75
2023/03/31 04:31:24;;;;;;;8.10;2.80;;;14.60;99.90;;;;;;4993175;28;20046;-75
2023/03/31 04:33:52;;;;;;;9.48;3.10;;;14.60;99.90;;;;;;4993359;28;20070;-75
2023/03/31 04:36:19;;;;;;;8.98;2.90;;;14.60;99.90;;;;;;5002801;28;20042;-75
2023/03/31 04:38:53;;;;;;;7.13;2.83;;;14.60;99.90;;;;;;4996738;28;20065;-76
2023/03/31 04:41:21;;;;;;;8.35;2.88;;;14.50;99.90;;;;;;4998904;28;20042;-75
2023/03/31 04:43:48;;;;;;;9.73;2.63;;;14.50;99.90;;;;;;4997225;28;20053;-75
2023/03/31 04:46:15;;;;;;;9.60;3.40;;;14.50;99.90;;;;;;4995359;28;20046;-75
2023/03/31 04:48:42;;;;;;;7.60;2.65;;;14.50;99.90;;;;;;5002141;28;20048;-75
2023/03/31 04:51:09;;;;;;;9.68;3.08;;;14.50;99.90;;;;;;5008098;28;20125;-76
2023/03/31 04:53:36;;;;;;;10.93;2.83;;;14.50;99.90;;;;;;5001037;28;20052;-75
2023/03/31 04:56:03;;;;;;;15.90;3.58;;;14.40;99.90;;;;;;4995978;28;20038;-75
2023/03/31 04:58:30;;;;;;;8.57;2.60;;;14.40;99.90;;;;;;5004536;28;20078;-74
2023/03/31 05:00:57;;;;;;;11.82;3.35;;;14.30;99.90;;;;;;4999448;28;20038;-75
2023/03/31 05:03:23;;;;;;;7.53;3.35;;;14.20;99.90;;;;;;4998347;28;20453;-75
2023/03/31 05:05:50;;;;;;;8.35;3.05;;;14.20;99.90;;;;;;4997311;28;20038;-75
2023/03/31 05:08:17;;;;;;;9.05;3.30;;;14.20;99.90;;;;;;5000401;28;20073;-75
2023/03/31 05:10:44;;;;;;;4.32;2.63;;;14.10;99.90;;;;;;5000933;28;20081;-75
2023/03/31 05:13:11;;;;;;;8.07;3.25;;;14.00;99.90;;;;;;5003875;28;20517;-75
2023/03/31 05:15:38;;;;;;;7.50;2.80;;;14.00;99.90;;;;;;5000480;28;20041;-75
2023/03/31 05:18:06;;;;;;;7.22;3.13;;;14.00;99.90;;;;;;5002205;28;20086;-75
2023/03/31 05:20:33;;;;;;;8.45;3.15;;;14.00;99.90;;;;;;5000658;28;20049;-75
2023/03/31 05:23:00;;;;;;;7.00;3.00;;;13.90;99.90;;;;;;5001911;28;20053;-76
2023/03/31 05:25:31;;;;;;;7.63;2.90;;;13.90;99.90;;;;;;5002799;28;20043;-75
2023/03/31 05:27:58;;;;;;;9.68;3.72;;;13.90;99.90;;;;;;5002160;28;20122;-75
2023/03/31 05:30:26;;;;;;;6.30;2.53;;;13.80;99.90;;;;;;5002542;28;20068;-76
2023/03/31 05:32:53;;;;;;;6.13;2.78;;;13.70;99.90;;;;;;5000813;28;20045;-75
2023/03/31 05:35:19;;;;;;;8.90;2.70;;;13.60;99.90;;;;;;4999931;28;20096;-75
2023/03/31 05:37:46;;;;;;;7.43;3.28;;;13.60;99.90;;;;;;4998916;28;20486;-75
2023/03/31 05:40:13;;;;;;;9.10;3.40;;;13.60;99.90;;;;;;5003911;28;20046;-75
2023/03/31 05:42:41;;;;;;;8.27;3.30;;;13.50;99.90;;;;;;5005331;28;20056;-75
2023/03/31 05:45:08;;;;;;;8.48;3.10;;;13.50;99.90;;;;;;4999352;28;20042;-75
2023/03/31 05:47:35;;;;;;;8.23;3.70;;;13.50;99.90;;;;;;5005048;28;20046;-76
2023/03/31 05:50:06;;;;;;;7.20;3.28;;;13.50;99.90;;;;;;5000630;28;20449;-76
2023/03/31 05:52:33;;;;;;;5.70;3.33;;;13.50;99.90;;;;;;5000250;28;20406;-76
2023/03/31 05:54:59;;;;;;;6.35;2.92;;;13.50;99.90;;;;;;5001216;28;20042;-76
2023/03/31 05:57:26;;;;;;;8.60;3.65;;;13.50;99.90;;;;;;5000040;28;20077;-76
2023/03/31 05:59:53;;;;;;;5.22;2.88;;;13.50;99.90;;;;;;4998324;28;20046;-76
2023/03/31 06:02:20;;;;;;;5.82;3.10;;;13.50;99.90;;;;;;4999381;28;20045;-77
2023/03/31 06:04:47;;;;;;;6.38;2.75;;;13.30;99.90;;;;;;5009797;28;20054;-76
2023/03/31 06:07:13;;;;;;;6.72;2.95;;;13.10;99.90;;;;;;4996234;28;20077;-76
2023/03/31 06:09:40;;;;;;;6.28;2.70;;;12.80;99.90;;;;;;4999112;28;20070;-76
2023/03/31 06:12:07;;;;;;;6.63;2.75;;;12.80;99.90;;;;;;5002692;28;20542;-76
2023/03/31 06:14:34;;;;;;;5.93;2.60;;;12.60;99.90;;;;;;4999938;28;20054;-76
2023/03/31 06:17:00;;;;;;;5.43;3.00;;;12.60;99.90;;;;;;4997278;28;20056;-76
2023/03/31 06:19:27;;;;;;;6.78;2.38;;;12.60;99.90;;;;;;5002693;28;20498;-76
2023/03/31 06:21:54;;;;;;;3.10;1.42;;;12.50;99.90;;;;;;5003370;28;20050;-76
2023/03/31 06:24:21;;;;;;;5.70;1.90;;;12.50;99.90;;;;;;5002633;28;20051;-76
2023/03/31 06:26:47;;;;;;;7.45;2.08;;;12.50;99.90;;;;;;5009707;28;20121;-76
2023/03/31 06:29:14;;;;;;;4.22;1.75;;;12.50;99.90;;;;;;4998577;28;20129;-76
2023/03/31 06:31:41;;;;;;;6.55;1.80;;;12.40;99.90;;;;;;5000918;28;20525;-73
2023/03/31 06:34:07;;;;;;;5.40;1.40;;;12.30;99.90;;;;;;5006160;28;20042;-75
2023/03/31 06:36:34;;;;;;;3.20;1.67;;;12.30;99.90;;;;;;5006283;28;20053;-74
2023/03/31 06:39:01;;;;;;;3.70;1.20;;;12.30;99.90;;;;;;4997202;28;20047;-75
2023/03/31 06:41:28;;;;;;;2.90;1.30;;;12.30;99.90;;;;;;5000823;28;20060;-74
2023/03/31 06:43:55;;;;;;;4.53;1.10;;;12.30;99.90;;;;;;5009458;28;20085;-75
2023/03/31 06:46:21;;;;;;;3.60;1.50;;;12.40;99.90;;;;;;5002226;28;20470;-74
2023/03/31 06:48:48;;;;;;;2.20;1.08;;;12.40;99.90;;;;;;5003616;28;20112;-74
2023/03/31 06:51:15;;;;;;;1.60;1.15;;;12.40;99.90;;;;;;5002120;28;20498;-75
2023/03/31 06:53:42;;;;;;;2.90;1.10;;;12.30;99.90;;;;;;4998184;28;20501;-75
2023/03/31 06:56:08;;;;;;;3.55;1.27;;;12.30;99.90;;;;;;4999764;28;20042;-75
2023/03/31 06:58:35;;;;;;;1.85;1.10;;;12.20;99.90;;;;;;5000257;28;20057;-74
2023/03/31 07:01:04;;;;;;;3.33;0.80;;;12.20;99.90;;;;;;4997272;28;20042;-74
2023/03/31 07:03:32;;;;;;;3.20;1.10;;;12.20;99.90;;;;;;4999456;28;20084;-74
2023/03/31 07:05:59;;;;;;;5.03;1.30;;;12.20;99.90;;;;;;4999845;28;20076;-74
2023/03/31 07:08:26;;;;;;;1.15;1.00;;;12.10;99.90;;;;;;4998962;28;21080;-73
2023/03/31 07:10:59;;;;;;;2.67;1.15;;;12.00;99.90;;;;;;4998440;28;20042;-74
2023/03/31 07:13:27;;;;;;;4.43;1.10;;;12.00;99.90;;;;;;5000656;28;20046;-74
2023/03/31 07:15:54;;;;;;;2.90;1.00;;;12.00;99.90;;;;;;5001560;28;20078;-74
2023/03/31 07:18:24;;;;;;;3.60;1.00;;;12.10;99.90;;;;;;4997169;28;20046;-74
2023/03/31 07:20:51;;;;;;;2.30;1.17;;;12.10;99.90;;;;;;4999698;28;20053;-74
2023/03/31 07:23:19;;;;;;;1.83;1.10;;;12.10;99.90;;;;;;5002965;28;20046;-75
2023/03/31 07:25:47;;;;;;;3.20;1.15;;;12.10;99.90;;;;;;4999214;28;20089;-74
2023/03/31 07:28:14;;;;;;;2.13;1.27;;;12.10;99.90;;;;;;4998888;28;20422;-74
2023/03/31 07:30:41;;;;;;;3.13;1.08;;;12.20;99.90;;;;;;4999394;28;20073;-74
2023/03/31 07:33:08;;;;;;;3.72;1.45;;;12.20;99.90;;;;;;5006211;28;20045;-74
2023/03/31 07:35:40;;;;;;;4.35;1.08;;;12.30;99.90;;;;;;4996883;28;20133;-74
2023/03/31 07:38:09;;;;;;;3.20;1.33;;;12.40;99.90;;;;;;5000824;28;20054;-74
2023/03/31 07:40:36;;;;;;;3.10;1.30;;;12.40;99.90;;;;;;4997031;28;20133;-73
2023/03/31 07:43:03;;;;;;;2.45;1.08;;;12.40;99.90;;;;;;4997686;28;20041;-74
2023/03/31 07:45:30;;;;;;;2.85;1.17;;;12.40;99.90;;;;;;4999644;28;20057;-74
2023/03/31 07:47:57;;;;;;;2.28;1.30;;;12.40;99.90;;;;;;5001405;28;20057;-74
2023/03/31 07:50:24;;;;;;;3.38;1.25;;;12.40;99.90;;;;;;4996251;28;20073;-74
2023/03/31 07:52:51;;;;;;;5.38;1.45;;;12.40;99.90;;;;;;4995945;28;20062;-74
2023/03/31 07:55:18;;;;;;;4.90;1.40;;;12.40;99.90;;;;;;4998714;28;20054;-74
2023/03/31 07:57:46;;;;;;;2.75;1.27;;;12.50;99.90;;;;;;4996250;28;20045;-74
2023/03/31 08:00:14;;;;;;;7.63;2.17;;;12.50;99.90;;;;;;4998760;28;20506;-74
2023/03/31 08:02:42;;;;;;;5.90;1.85;;;12.50;99.90;;;;;;5002564;28;20065;-74
2023/03/31 08:05:11;;;;;;;8.95;1.70;;;12.60;99.90;;;;;;4996307;28;20092;-74
2023/03/31 08:07:40;;;;;;;5.93;1.92;;;12.60;99.90;;;;;;4998040;28;20077;-73
2023/03/31 08:10:10;;;;;;;7.18;1.85;;;12.70;99.90;;;;;;4999249;28;20129;-74
2023/03/31 08:12:37;;;;;;;7.65;2.22;;;12.80;99.90;;;;;;5000279;28;20518;-74
2023/03/31 08:15:04;;;;;;;6.20;1.85;;;12.80;99.90;;;;;;5004368;28;20065;-74
2023/03/31 08:17:31;;;;;;;7.65;1.90;;;12.90;99.90;;;;;;4993214;28;20046;-74
2023/03/31 08:19:58;;;;;;;7.93;1.70;;;12.90;99.90;;;;;;4997575;28;20054;-74
2023/03/31 08:22:31;;;;;;;6.75;2.33;;;12.90;99.90;;;;;;4991102;28;20089;-74
2023/03/31 08:24:58;;;;;;;7.82;2.33;;;12.90;99.90;;;;;;4991904;28;20116;-74
2023/03/31 08:27:25;;;;;;;5.80;1.63;;;12.90;99.90;;;;;;4991468;28;20490;-74
2023/03/31 08:29:51;;;;;;;6.47;1.67;;;12.90;99.90;;;;;;4995286;28;20597;-74
2023/03/31 08:32:22;;;;;;;7.65;1.40;;;13.00;99.90;;;;;;4992506;28;20117;-74
2023/03/31 08:34:50;;;;;;;7.20;1.40;;;13.00;99.90;;;;;;4997127;28;20124;-74
2023/03/31 08:37:17;;;;;;;6.82;1.63;;;13.00;99.90;;;;;;4998747;28;20081;-75
2023/03/31 08:39:44;;;;;;;6.78;1.50;;;13.10;99.90;;;;;;4995055;28;20049;-75
2023/03/31 08:42:30;;;;;;;5.95;1.10;;;13.20;99.90;;;;;;4997303;28;20086;-75
2023/03/31 08:45:10;;;;;;;3.88;1.35;;;13.30;99.90;;;;;;5000523;28;20730;-75
2023/03/31 08:47:38;;;;;;;3.20;1.10;;;13.40;99.90;;;;;;4998048;28;20069;-75
2023/03/31 08:50:19;;;;;;;1.88;0.90;;;13.50;99.90;;;;;;5000298;28;20101;-74
2023/03/31 08:52:49;;;;;;;;;;;13.60;99.90;;;;;;4999290;28;20072;-74
2023/03/31 08:55:22;;;;;;;;;;;13.60;99.90;;;;;;5001491;28;19922;-75
2023/03/31 08:58:21;;;;;;;5.95;1.45;;;13.70;99.90;;;;;;4996387;28;19921;-74
2023/03/31 09:00:53;;;;;;;3.90;0.80;;;13.80;99.90;;;;;;5001607;28;20146;-75
2023/03/31 09:03:33;;;;;;;6.15;1.33;;;14.00;99.90;;;;;;5000121;28;20058;-75
2023/03/31 09:06:05;;;;;;;3.92;1.27;;;14.20;99.90;;;;;;4998773;28;20125;-75
2023/03/31 09:08:37;;;;;;;4.03;1.38;;;14.30;99.90;;;;;;5000150;28;20046;-75
2023/03/31 09:11:18;;;;;;;5.30;1.25;;;14.40;99.90;;;;;;5005573;28;20105;-75
2023/03/31 09:13:54;;;;;;;5.85;1.45;;;14.40;99.90;;;;;;4998167;28;20050;-75
2023/03/31 09:16:51;;;;;;;7.93;1.20;;;14.30;99.90;;;;;;4997335;28;20051;-76
2023/03/31 09:19:28;;;;;;;7.35;1.35;;;14.30;99.90;;;;;;4999812;28;20050;-75
2023/03/31 09:21:55;;;;;;;5.13;1.10;;;14.20;99.90;;;;;;5008177;28;20422;-75
2023/03/31 09:24:34;;;;;;;8.75;1.52;;;14.20;99.90;;;;;;4999243;28;20061;-75
2023/03/31 09:27:05;;;;;;;7.55;1.48;;;14.20;99.90;;;;;;4995831;28;20514;-75
2023/03/31 09:29:45;;;;;;;7.53;2.08;;;14.20;99.90;;;;;;5002260;28;20060;-75
2023/03/31 09:32:23;;;;;;;7.43;1.77;;;14.20;99.90;;;;;;5002429;28;20129;-76
2023/03/31 09:34:57;;;;;;;9.60;2.10;;;14.20;99.90;;;;;;4997537;28;20465;-75
2023/03/31 09:37:28;;;;;;;8.48;2.63;;;14.20;99.90;;;;;;4997492;28;20042;-75
2023/03/31 09:40:06;;;;;;;8.65;2.28;;;14.20;99.90;;;;;;4999634;28;20594;-76
2023/03/31 09:42:34;;;;;;;7.32;2.13;;;14.10;99.90;;;;;;4997515;28;20085;-75
2023/03/31 09:45:01;;;;;;;10.32;2.20;;;14.20;99.90;;;;;;4998525;28;20136;-75
2023/03/31 09:47:37;;;;;;;10.50;1.73;;;14.30;99.90;;;;;;5000120;28;20149;-76
2023/03/31 09:50:06;;;;;;;9.65;2.00;;;14.30;99.90;;;;;;4996772;28;20046;-76
2023/03/31 09:52:48;;;;;;;11.55;2.72;;;14.40;99.90;;;;;;5006632;28;20563;-74
2023/03/31 09:55:21;;;;;;;8.43;1.83;;;14.40;99.90;;;;;;5009000;28;20046;-76
2023/03/31 09:58:10;;;;;;;6.38;1.90;;;14.50;99.90;;;;;;5002400;28;20046;-76
2023/03/31 10:00:41;;;;;;;8.90;1.60;;;14.60;99.90;;;;;;5001314;28;20054;-76
2023/03/31 10:03:12;;;;;;;7.07;1.95;;;14.60;99.90;;;;;;5000047;28;20061;-76
2023/03/31 10:05:49;;;;;;;6.57;1.67;;;14.70;99.90;;;;;;5000868;28;20042;-76
2023/03/31 10:08:16;;;;;;;10.07;1.60;;;14.80;99.90;;;;;;5004591;28;20046;-76
2023/03/31 10:10:47;;;;;;;4.70;1.42;;;14.90;99.90;;;;;;5004663;28;20050;-76
2023/03/31 10:13:19;;;;;;;7.07;1.33;;;15.10;99.90;;;;;;5003161;28;20054;-76
2023/03/31 10:15:46;;;;;;;4.25;1.23;;;15.00;99.90;;;;;;5002722;28;20061;-76
2023/03/31 10:18:18;;;;;;;5.78;0.85;;;15.00;99.90;;;;;;5004236;28;20060;-76
2023/03/31 10:20:51;;;;;;;3.58;0.85;;;14.90;99.90;;;;;;5004518;28;20054;-76
2023/03/31 10:23:27;;;;;;;4.47;1.00;;;14.80;99.90;;;;;;5004073;28;20133;-75
2023/03/31 10:25:54;;;;;;;6.15;1.23;;;14.70;99.90;;;;;;5003263;28;20137;-76
2023/03/31 10:28:22;;;;;;;7.88;1.25;;;14.70;99.90;;;;;;5002616;28;20053;-76
2023/03/31 10:31:02;;;;;;;5.45;1.67;;;14.70;99.90;;;;;;5002300;28;20047;-76
2023/03/31 10:33:33;;;;;;;7.43;1.48;;;14.70;99.90;;;;;;5002264;28;20050;-76
2023/03/31 10:36:12;;;;;;;6.15;1.08;;;14.80;99.90;;;;;;5002499;28;20425;-75
2023/03/31 10:38:43;;;;;;;8.35;1.95;;;14.80;99.90;;;;;;5003635;28;20133;-76
2023/03/31 10:41:11;;;;;;;9.13;2.10;;;14.90;99.90;;;;;;5001982;28;20133;-76
2023/03/31 10:43:40;;;;;;;4.63;1.27;;;14.90;99.90;;;;;;5001871;28;20057;-76
2023/03/31 10:46:07;;;;;;;7.30;1.75;;;15.00;99.90;;;;;;5004370;28;20497;-76
2023/03/31 10:48:41;;;;;;;5.97;1.20;;;15.10;99.90;;;;;;5002960;28;20498;-76
2023/03/31 10:51:18;;;;;;;6.40;1.02;;;15.10;99.90;;;;;;5001669;28;20129;-76
2023/03/31 10:53:47;;;;;;;6.85;1.70;;;15.10;99.90;;;;;;5001928;28;20442;-76
2023/03/31 10:56:21;;;;;;;5.78;1.50;;;15.10;99.90;;;;;;5003266;28;20050;-76
2023/03/31 10:58:55;;;;;;;6.43;1.60;;;15.20;99.90;;;;;;5004112;28;20160;-76
2023/03/31 11:01:37;;;;;;;5.93;1.23;;;15.40;99.90;;;;;;5005567;28;20095;-75
2023/03/31 11:04:42;;;;;;;6.93;1.50;;;15.60;99.90;;;;;;4994257;28;20458;-75
2023/03/31 11:07:44;;;;;;;9.73;1.63;;;15.70;99.90;;;;;;5000410;28;20046;-75
2023/03/31 11:10:22;;;;;;;4.93;1.10;;;15.80;99.90;;;;;;4998059;28;20042;-75
2023/03/31 11:13:21;;;;;;;9.82;1.75;;;15.80;99.90;;;;;;4996851;28;20054;-76
2023/03/31 11:16:14;;;;;;;5.95;1.30;;;15.90;99.90;;;;;;4969167;28;20141;-75
2023/03/31 11:19:02;;;;;;;6.75;1.80;;;15.90;99.90;;;;;;4998178;28;20047;-75
2023/03/31 11:21:41;;;;;;;6.70;1.80;;;15.80;99.90;;;;;;4998547;28;20046;-76
2023/03/31 11:24:32;;;;;;;5.47;1.50;;;15.60;99.90;;;;;;4998828;28;20133;-75
2023/03/31 11:27:11;;;;;;;7.13;1.85;;;15.40;99.90;;;;;;5002030;28;20049;-75
2023/03/31 11:29:43;;;;;;;7.90;2.00;;;15.30;99.90;;;;;;4992608;28;20054;-76
2023/03/31 11:32:39;;;;;;;8.48;2.63;;;15.10;99.90;;;;;;4995781;28;20462;-76
2023/03/31 11:35:21;;;;;;;10.48;2.22;;;15.00;99.90;;;;;;4995759;28;20038;-76
2023/03/31 11:38:07;;;;;;;5.38;0.82;;;14.90;99.90;;;;;;4996581;28;20526;-75
2023/03/31 11:41:07;;;;;;;2.80;0.52;;;14.10;99.90;;;;;;4997601;28;20050;-74
2023/03/31 11:43:42;;;;;;;2.28;0.50;;;12.90;99.90;;;;;;5002740;28;20045;-74
2023/03/31 11:46:35;;;;;;;2.50;0.60;;;12.50;99.90;;;;;;4995436;28;20414;-75
2023/03/31 11:49:29;;;;;;;1.50;0.70;;;12.50;99.90;;;;;;5000592;28;20461;-75
2023/03/31 11:51:56;;;;;;;3.92;0.63;;;12.60;99.90;;;;;;4995812;28;20094;-76
2023/03/31 11:54:54;;;;;;;1.98;0.60;;;12.50;99.90;;;;;;4993640;28;20442;-75
2023/03/31 11:57:28;;;;;;;1.90;0.52;;;12.70;99.90;;;;;;4988407;28;20038;-77
2023/03/31 12:00:10;;;;;;;1.08;0.50;;;12.90;99.90;;;;;;4996540;28;20563;-76
2023/03/31 12:02:54;;;;;;;1.92;0.40;;;13.10;99.90;;;;;;4993680;28;20051;-75
2023/03/31 12:05:25;;;;;;;3.10;0.38;;;13.30;99.90;;;;;;5000520;28;20050;-76
2023/03/31 12:07:58;;;;;;;3.35;0.60;;;13.60;99.90;;;;;;5000287;28;20043;-76
2023/03/31 12:10:36;;;;;;;2.00;0.63;;;13.80;99.90;;;;;;5001518;28;20047;-76
2023/03/31 12:13:25;;;;;;;0.95;0.60;;;14.10;99.90;;;;;;4997496;28;20129;-75
2023/03/31 12:16:03;;;;;;;3.08;0.60;;;14.30;99.90;;;;;;5010363;28;20050;-76
2023/03/31 12:18:36;;;;;;;3.55;0.60;;;14.40;99.90;;;;;;5001989;28;20050;-76
2023/03/31 12:21:05;;;;;;;3.33;0.70;;;14.50;99.90;;;;;;5002588;28;20125;-76
2023/03/31 12:23:42;;;;;;;2.55;0.77;;;14.60;99.90;;;;;;5003407;28;20137;-76
2023/03/31 12:26:37;;;;;;;3.28;0.75;;;14.80;99.90;;;;;;5007088;28;20564;-76
2023/03/31 12:29:21;;;;;;;2.17;0.50;;;14.90;99.90;;;;;;5006075;28;20056;-76
2023/03/31 12:31:52;;;;;;;3.92;0.75;;;14.90;99.90;;;;;;5009270;28;20050;-76
2023/03/31 12:34:22;;;;;;;2.80;0.82;;;15.00;99.90;;;;;;5008444;28;20070;-76
2023/03/31 12:37:12;;;;;;;3.00;1.27;;;15.00;99.90;;;;;;5004731;28;20505;-76
2023/03/31 12:39:39;;;;;;;2.72;0.93;;;15.10;99.90;;;;;;5004895;28;20056;-76
2023/03/31 12:42:14;;;;;;;3.53;0.80;;;15.10;99.90;;;;;;5011928;28;20054;-76
2023/03/31 12:44:57;;;;;;;5.70;1.17;;;15.20;99.90;;;;;;5001895;28;20482;-77
2023/03/31 12:47:59;;;;;;;3.78;0.90;;;15.30;99.90;;;;;;5003985;28;20053;-76
2023/03/31 12:50:35;;;;;;;6.40;1.25;;;15.30;99.90;;;;;;4976674;28;20039;-77
2023/03/31 12:53:14;;;;;;;6.00;1.67;;;15.40;99.90;;;;;;5001875;28;20129;-77
2023/03/31 12:55:48;;;;;;;7.15;1.40;;;15.60;99.90;;;;;;5003618;28;20054;-77
2023/03/31 12:58:25;;;;;;;4.82;1.10;;;15.70;99.90;;;;;;5008605;28;20077;-77
2023/03/31 13:01:09;;;;;;;4.22;1.00;;;15.70;99.90;;;;;;5003281;28;20046;-77
2023/03/31 13:03:43;;;;;;;5.57;0.98;;;15.80;99.90;;;;;;5005855;28;20049;-77
2023/03/31 13:06:28;;;;;;;8.52;1.80;;;15.80;99.90;;;;;;5000566;28;20129;-77
2023/03/31 13:09:10;;;;;;;4.40;1.60;;;15.80;99.90;;;;;;5004188;28;20092;-77
2023/03/31 13:11:40;;;;;;;5.55;1.27;;;15.90;99.90;;;;;;4998925;28;20050;-76
2023/03/31 13:14:20;;;;;;;8.98;1.50;;;15.80;99.90;;;;;;5003420;28;20704;-77
2023/03/31 13:16:49;;;;;;;6.80;1.50;;;15.80;99.90;;;;;;5001590;28;20050;-76